Time;durP1;ratioP1;P1;durP2;ratioP2;P2;SDS_P1;SDS_P2;PMS_P1;PMS_P2;Temp;Humidity;BMP_temperature;BMP_pressure;BME280_temperature;BME280_humidity;BME280_pressure;Samples;Min_cycle;Max_cycle;Signal;HPM_P1;HPM_P2
2022/04/02 00:04:59;;;;;;;27.80;14.90;;;0.40;99.90;;;;;;10398958;28;20378;-85
2022/04/02 00:10:00;;;;;;;25.07;13.30;;;0.30;99.90;;;;;;10376288;28;20095;-85
2022/04/02 00:15:00;;;;;;;27.33;14.60;;;0.20;99.90;;;;;;10376321;28;20504;-84
2022/04/02 00:20:01;;;;;;;30.30;14.30;;;0.30;99.90;;;;;;10406927;28;20037;-89
2022/04/02 00:25:02;;;;;;;27.73;14.77;;;0.20;99.90;;;;;;10394936;28;20026;-86
2022/04/02 00:30:03;;;;;;;29.07;15.17;;;0.20;99.90;;;;;;10403977;28;20029;-84
2022/04/02 00:35:04;;;;;;;28.70;15.00;;;0.20;99.90;;;;;;10405857;28;20060;-88
2022/04/02 00:40:05;;;;;;;24.47;13.43;;;0.20;99.90;;;;;;10352053;28;20033;-85
2022/04/02 00:45:07;;;;;;;26.53;13.53;;;0.20;99.90;;;;;;10381797;28;20030;-90
2022/04/02 00:50:09;;;;;;;25.07;13.93;;;0.10;99.90;;;;;;10388386;28;20069;-85
2022/04/02 00:55:09;;;;;;;25.40;12.63;;;0.10;99.90;;;;;;10401604;28;20555;-86
2022/04/02 01:00:10;;;;;;;24.10;14.17;;;0.10;99.90;;;;;;10351183;28;20092;-87
2022/04/02 01:05:11;;;;;;;29.73;15.43;;;0.10;99.90;;;;;;10407778;28;20383;-82
2022/04/02 01:10:12;;;;;;;28.23;15.70;;;0.10;99.90;;;;;;10380258;28;20021;-83
2022/04/02 01:15:13;;;;;;;29.27;15.53;;;0.10;99.90;;;;;;10366229;23;20149;-84
2022/04/02 01:20:15;;;;;;;33.83;16.90;;;0.10;99.90;;;;;;10293716;28;20435;-84
2022/04/02 01:25:16;;;;;;;35.67;18.60;;;0.10;99.90;;;;;;10291713;28;20113;-88
2022/04/02 01:30:16;;;;;;;34.23;17.70;;;0.10;99.90;;;;;;10300783;28;20126;-84
2022/04/02 01:35:20;;;;;;;36.00;17.90;;;0.00;99.90;;;;;;10315262;28;20065;-84
2022/04/02 01:40:21;;;;;;;39.90;17.90;;;0.10;99.90;;;;;;10331278;28;20125;-89
2022/04/02 01:45:21;;;;;;;31.57;16.40;;;0.10;99.90;;;;;;10314371;28;20513;-83
2022/04/02 01:50:23;;;;;;;36.57;16.87;;;0.10;99.90;;;;;;10314420;28;20065;-87
2022/04/02 01:55:24;;;;;;;34.27;15.73;;;0.10;99.90;;;;;;10330602;28;20042;-86
2022/04/02 02:00:25;;;;;;;30.77;16.17;;;0.00;99.90;;;;;;10312737;28;20457;-84
2022/04/02 02:05:26;;;;;;;34.03;17.60;;;0.10;99.90;;;;;;10313439;28;20065;-87
2022/04/02 02:10:27;;;;;;;33.50;17.30;;;0.00;99.90;;;;;;10330100;28;20121;-83
2022/04/02 02:15:28;;;;;;;39.77;19.50;;;0.00;99.90;;;;;;10339901;28;20081;-85
2022/04/02 02:20:29;;;;;;;33.97;16.77;;;0.00;99.90;;;;;;10369899;28;20062;-84
2022/04/02 02:25:29;;;;;;;35.07;17.27;;;0.00;99.90;;;;;;10370392;28;20034;-84
2022/04/02 02:30:30;;;;;;;32.87;16.23;;;0.00;99.90;;;;;;10369655;28;20038;-84
2022/04/02 02:40:51;;;;;;;35.33;17.60;;;-0.10;99.90;;;;;;10370845;28;20042;-86
2022/04/02 02:45:52;;;;;;;40.27;19.43;;;-0.10;99.90;;;;;;10351689;28;20117;-83
2022/04/02 02:50:52;;;;;;;40.17;20.27;;;-0.10;99.90;;;;;;10370174;28;20117;-86
2022/04/02 02:55:53;;;;;;;36.33;18.23;;;-0.10;99.90;;;;;;10368987;28;20041;-84
2022/04/02 03:00:54;;;;;;;37.40;19.17;;;-0.10;99.90;;;;;;10370384;28;20025;-85
2022/04/02 03:05:54;;;;;;;35.10;17.47;;;-0.10;99.90;;;;;;10350978;28;20041;-85
2022/04/02 03:15:58;;;;;;;35.60;18.67;;;-0.10;99.90;;;;;;10447380;28;20084;-86
2022/04/02 03:20:59;;;;;;;37.67;18.23;;;-0.10;99.90;;;;;;10432918;28;20111;-86
2022/04/02 03:25:59;;;;;;;34.87;19.23;;;-0.10;99.90;;;;;;10449490;28;20036;-87
2022/04/02 03:31:00;;;;;;;38.47;19.40;;;-0.10;99.90;;;;;;10393363;28;20080;-87
2022/04/02 03:36:01;;;;;;;37.47;17.87;;;-0.10;99.90;;;;;;10435161;28;20037;-86
2022/04/02 03:41:02;;;;;;;40.10;19.67;;;-0.20;99.90;;;;;;10409616;28;20033;-89
2022/04/02 03:51:22;;;;;;;44.70;20.93;;;-0.10;99.90;;;;;;10409039;28;20061;-87
2022/04/02 03:56:22;;;;;;;39.37;20.60;;;-0.10;99.90;;;;;;10436911;28;20648;-88
2022/04/02 04:01:23;;;;;;;40.13;18.93;;;-0.20;99.90;;;;;;10444917;28;20067;-85
2022/04/02 04:06:23;;;;;;;46.43;19.37;;;-0.10;99.90;;;;;;10414721;28;20039;-87
2022/04/02 04:11:26;;;;;;;42.43;21.10;;;-0.10;99.90;;;;;;10449216;28;20047;-86
2022/04/02 04:16:26;;;;;;;46.30;20.50;;;-0.20;99.90;;;;;;10446984;28;20043;-85
2022/04/02 04:21:27;;;;;;;40.23;18.73;;;-0.20;99.90;;;;;;10447972;28;20032;-88
2022/04/02 04:26:28;;;;;;;42.10;20.17;;;-0.20;99.90;;;;;;10407144;28;20045;-87
2022/04/02 04:31:29;;;;;;;46.70;22.23;;;-0.10;99.90;;;;;;10443481;28;20067;-86
2022/04/02 04:36:30;;;;;;;45.70;21.70;;;-0.20;99.90;;;;;;10409805;28;20068;-87
2022/04/02 04:41:31;;;;;;;48.37;23.00;;;-0.10;99.90;;;;;;10409235;28;20029;-87
2022/04/02 04:46:31;;;;;;;43.40;20.27;;;-0.10;99.90;;;;;;10433728;28;20166;-92
2022/04/02 04:51:32;;;;;;;45.00;22.00;;;-0.20;99.90;;;;;;10448482;23;20472;-88
2022/04/02 04:56:33;;;;;;;46.77;22.37;;;-0.20;99.90;;;;;;10392935;28;20496;-90
2022/04/02 05:01:34;;;;;;;45.93;22.23;;;-0.10;99.90;;;;;;10386621;28;20041;-86
2022/04/02 05:06:36;;;;;;;59.97;23.57;;;-0.10;99.90;;;;;;10401941;28;20378;-86
2022/04/02 05:11:36;;;;;;;44.93;22.13;;;0.00;99.90;;;;;;10407635;28;20691;-82
2022/04/02 05:16:41;;;;;;;46.77;22.43;;;-0.10;99.90;;;;;;10400804;28;20128;-82
2022/04/02 05:21:42;;;;;;;42.73;20.10;;;-0.10;99.90;;;;;;10401227;28;20029;-83
2022/04/02 05:26:44;;;;;;;42.30;21.57;;;-0.10;99.90;;;;;;10403824;28;20029;-83
2022/04/02 05:31:45;;;;;;;41.10;19.53;;;-0.10;99.90;;;;;;10419764;28;20638;-86
2022/04/02 05:36:46;;;;;;;46.27;21.50;;;-0.10;99.90;;;;;;10419848;28;20036;-83
2022/04/02 05:41:48;;;;;;;41.80;20.03;;;-0.10;99.90;;;;;;10445073;28;20037;-83
2022/04/02 05:46:48;;;;;;;45.30;20.40;;;-0.10;99.90;;;;;;10445189;28;20027;-84
2022/04/02 05:51:49;;;;;;;46.63;20.77;;;0.00;99.90;;;;;;10426624;28;20048;-87
2022/04/02 05:56:51;;;;;;;44.33;21.20;;;-0.10;99.90;;;;;;10425700;28;20055;-86
2022/04/02 06:01:52;;;;;;;45.60;20.13;;;0.00;99.90;;;;;;10407927;28;20064;-84
2022/04/02 06:06:53;;;;;;;42.13;19.97;;;-0.10;99.90;;;;;;10453959;28;20107;-82
2022/04/02 06:11:54;;;;;;;42.87;21.40;;;0.00;99.90;;;;;;10448544;28;20032;-82
2022/04/02 06:16:55;;;;;;;48.20;21.67;;;0.00;99.90;;;;;;10441942;28;20376;-81
2022/04/02 06:21:56;;;;;;;42.73;21.93;;;0.00;99.90;;;;;;10413026;28;20112;-84
2022/04/02 06:26:57;;;;;;;44.37;22.77;;;0.00;99.90;;;;;;10429104;28;20511;-83
2022/04/02 06:31:57;;;;;;;45.63;20.83;;;0.10;99.90;;;;;;10443393;28;20072;-82
2022/04/02 06:36:58;;;;;;;44.50;21.37;;;0.10;99.90;;;;;;10447411;28;20033;-82
2022/04/02 06:42:00;;;;;;;41.40;20.20;;;0.10;99.90;;;;;;10449898;28;20028;-82
2022/04/02 06:47:01;;;;;;;45.40;20.10;;;0.10;99.90;;;;;;10438322;28;20028;-83
2022/04/02 06:52:03;;;;;;;42.53;21.53;;;0.10;99.90;;;;;;10422846;28;20060;-83
2022/04/02 06:57:04;;;;;;;43.90;21.27;;;0.10;99.90;;;;;;10423888;28;20033;-82
2022/04/02 07:02:06;;;;;;;47.33;21.87;;;0.10;99.90;;;;;;10431558;28;20022;-84
2022/04/02 07:07:07;;;;;;;41.37;21.83;;;0.10;99.90;;;;;;10433369;28;20024;-85
2022/04/02 07:12:09;;;;;;;42.00;20.37;;;0.10;99.90;;;;;;10447961;28;20079;-82
2022/04/02 07:17:09;;;;;;;39.57;21.03;;;0.20;99.90;;;;;;10430415;28;20766;-84
2022/04/02 07:22:10;;;;;;;38.07;19.33;;;0.10;99.90;;;;;;10417514;28;20104;-83
2022/04/02 07:27:12;;;;;;;45.13;22.07;;;0.10;99.90;;;;;;10421939;28;20025;-83
2022/04/02 07:32:12;;;;;;;41.10;19.67;;;0.10;99.90;;;;;;10437208;28;20037;-84
2022/04/02 07:37:51;;;;;;;41.07;20.57;;;0.10;99.90;;;;;;10431792;28;20029;-84
2022/04/02 07:43:20;;;;;;;42.80;23.13;;;0.20;99.90;;;;;;10417719;28;20120;-83
2022/04/02 07:48:24;;;;;;;40.33;20.27;;;0.20;99.90;;;;;;10418582;28;20060;-82
2022/04/02 07:53:34;;;;;;;40.00;21.33;;;0.20;99.90;;;;;;10420639;28;20143;-84
2022/04/02 07:58:40;;;;;;;42.20;21.13;;;0.20;99.90;;;;;;10412497;28;20036;-83
2022/04/02 08:03:46;;;;;;;44.07;22.30;;;0.20;99.90;;;;;;10433946;28;20036;-85
2022/04/02 08:08:47;;;;;;;44.72;21.85;;;0.30;99.90;;;;;;10446707;28;20032;-83
2022/04/02 08:13:48;;;;;;;42.10;21.00;;;0.30;99.90;;;;;;10429480;28;20057;-83
2022/04/02 08:18:55;;;;;;;35.93;19.93;;;0.40;99.90;;;;;;10429946;28;20036;-84
2022/04/02 08:23:56;;;;;;;43.63;21.67;;;0.40;99.90;;;;;;10457721;28;20024;-82
2022/04/02 08:29:22;;;;;;;39.03;19.70;;;0.50;99.90;;;;;;10439710;28;20024;-84
2022/04/02 08:34:32;;;;;;;;;;;0.50;99.90;;;;;;10450406;28;20036;-86
2022/04/02 08:40:01;;;;;;;39.53;20.60;;;0.50;99.90;;;;;;10437374;28;20486;-84
2022/04/02 08:45:10;;;;;;;41.30;19.83;;;0.50;99.90;;;;;;10424216;28;20049;-84
2022/04/02 08:50:14;;;;;;;40.97;21.00;;;0.50;99.90;;;;;;10433529;28;20119;-85
2022/04/02 08:55:20;;;;;;;41.10;19.80;;;0.50;99.90;;;;;;10418538;28;20048;-84
2022/04/02 09:00:24;;;;;;;37.33;19.27;;;0.60;99.90;;;;;;10431033;28;20763;-85
2022/04/02 09:05:48;;;;;;;42.37;20.57;;;0.60;99.90;;;;;;10434110;28;20025;-87
2022/04/02 09:11:10;;;;;;;36.00;18.73;;;0.50;99.90;;;;;;10421300;28;20029;-85
2022/04/02 09:16:26;;;;;;;38.97;18.43;;;0.50;99.90;;;;;;10414087;28;20621;-86
2022/04/02 09:21:34;;;;;;;34.50;16.75;;;0.50;99.90;;;;;;10425459;28;20440;-88
2022/04/02 09:26:54;;;;;;;34.87;18.57;;;0.50;99.90;;;;;;10418759;28;20069;-87
2022/04/02 09:32:05;;;;;;;37.20;20.13;;;0.50;99.90;;;;;;10423103;28;20025;-88
2022/04/02 09:37:27;;;;;;;32.03;17.63;;;0.50;99.90;;;;;;10433589;28;20052;-87
2022/04/02 09:42:41;;;;;;;31.40;17.23;;;0.60;99.90;;;;;;10435437;28;20028;-89
2022/04/02 09:47:48;;;;;;;31.97;18.50;;;0.60;99.90;;;;;;10441105;28;20029;-86
2022/04/02 09:53:06;;;;;;;35.50;19.10;;;0.60;99.90;;;;;;10433165;28;20424;-86
2022/04/02 09:58:28;;;;;;;39.07;19.23;;;0.60;99.90;;;;;;10413171;28;20045;-86
2022/04/02 10:03:40;;;;;;;34.43;18.50;;;0.70;99.90;;;;;;10435109;28;20406;-86
2022/04/02 10:09:20;;;;;;;39.13;20.27;;;0.70;99.90;;;;;;10415858;28;20053;-84
2022/04/02 10:14:23;;;;;;;32.63;19.43;;;0.70;99.90;;;;;;10452266;28;20128;-85
2022/04/02 10:19:29;;;;;;;33.67;18.73;;;0.60;99.90;;;;;;10406971;28;20029;-84
2022/04/02 10:24:37;;;;;;;35.90;18.53;;;0.50;99.90;;;;;;10396065;28;20065;-83
2022/04/02 10:29:56;;;;;;;37.87;19.47;;;0.50;99.90;;;;;;10393951;28;20693;-85
2022/04/02 10:35:06;;;;;;;39.67;19.83;;;0.50;99.90;;;;;;10421786;28;20041;-86
2022/04/02 10:40:28;;;;;;;37.27;18.50;;;0.50;99.90;;;;;;10422665;28;20502;-87
2022/04/02 10:45:29;;;;;;;34.67;16.97;;;0.60;99.90;;;;;;10428104;28;20028;-86
2022/04/02 10:50:31;;;;;;;33.13;17.47;;;0.50;99.90;;;;;;10409841;28;20053;-86
2022/04/02 10:55:33;;;;;;;31.17;18.00;;;0.60;99.90;;;;;;10421930;28;20480;-85
2022/04/02 11:00:36;;;;;;;36.43;19.63;;;0.60;99.90;;;;;;10409099;28;20401;-86
2022/04/02 11:05:38;;;;;;;35.07;19.00;;;0.60;99.90;;;;;;10400941;28;20025;-85
2022/04/02 11:10:46;;;;;;;40.13;20.67;;;0.60;99.90;;;;;;10428878;28;20373;-87
2022/04/02 11:15:47;;;;;;;32.60;18.77;;;0.60;99.90;;;;;;10423067;28;20542;-85
2022/04/02 11:20:48;;;;;;;36.57;18.87;;;0.60;99.90;;;;;;10416686;28;20095;-88
2022/04/02 11:25:54;;;;;;;34.83;18.90;;;0.50;99.90;;;;;;10411197;28;20047;-86
2022/04/02 11:31:05;;;;;;;36.45;19.65;;;0.60;99.90;;;;;;10402015;28;20489;-86
2022/04/02 11:36:14;;;;;;;34.13;20.20;;;0.50;99.90;;;;;;10426143;28;20040;-86
2022/04/02 11:41:27;;;;;;;35.00;20.03;;;0.50;99.90;;;;;;10441845;28;20031;-83
2022/04/02 11:46:28;;;;;;;37.20;20.40;;;0.50;99.90;;;;;;10427756;28;20105;-84
2022/04/02 11:51:31;;;;;;;36.80;21.07;;;0.60;99.90;;;;;;10386670;28;1177035;-85
2022/04/02 11:56:39;;;;;;;39.43;20.77;;;0.50;99.90;;;;;;10448489;28;20044;-86
2022/04/02 12:01:44;;;;;;;40.43;21.17;;;0.50;99.90;;;;;;10442017;28;20583;-86
2022/04/02 12:06:47;;;;;;;37.30;20.80;;;0.40;99.90;;;;;;10416052;28;20113;-87
2022/04/02 12:11:53;;;;;;;40.23;19.97;;;0.50;99.90;;;;;;10418132;28;20388;-87
2022/04/02 12:17:14;;;;;;;56.83;28.47;;;0.50;99.90;;;;;;10411011;28;20126;-86
2022/04/02 12:22:27;;;;;;;42.90;21.67;;;0.50;99.90;;;;;;10425557;28;20041;-86
2022/04/02 12:27:31;;;;;;;36.23;20.63;;;0.50;99.90;;;;;;10390105;28;20714;-84
2022/04/02 12:32:39;;;;;;;39.13;21.63;;;0.50;99.90;;;;;;10423249;28;20392;-87
2022/04/02 12:37:49;;;;;;;41.70;22.13;;;0.50;99.90;;;;;;10432898;28;20515;-89
2022/04/02 12:43:05;;;;;;;41.57;22.13;;;0.50;99.90;;;;;;10405435;28;20167;-85
2022/04/02 12:48:17;;;;;;;39.07;20.63;;;0.60;99.90;;;;;;10421723;28;20033;-84
2022/04/02 12:53:38;;;;;;;37.00;19.67;;;0.50;99.90;;;;;;10402817;28;20049;-84
2022/04/02 12:58:43;;;;;;;37.10;20.70;;;0.50;99.90;;;;;;10409920;28;20032;-84
2022/04/02 13:04:07;;;;;;;35.63;20.63;;;0.50;99.90;;;;;;10440729;28;20060;-82
2022/04/02 13:09:29;;;;;;;38.97;20.23;;;0.50;99.90;;;;;;10428663;28;20037;-83
2022/04/02 13:14:43;;;;;;;34.00;20.87;;;0.50;99.90;;;;;;10417037;28;20056;-83
2022/04/02 13:25:17;;;;;;;39.33;21.93;;;0.50;99.90;;;;;;10450128;28;20033;-81
2022/04/02 13:30:18;;;;;;;37.23;20.43;;;0.60;99.90;;;;;;10436387;28;20025;-83
2022/04/02 13:35:22;;;;;;;35.87;20.00;;;0.60;99.90;;;;;;10428953;28;20136;-82
2022/04/02 13:40:24;;;;;;;38.40;20.63;;;0.60;99.90;;;;;;10424589;28;20401;-82
2022/04/02 13:45:27;;;;;;;45.37;22.57;;;0.60;99.90;;;;;;10427242;28;20029;-82
2022/04/02 13:50:29;;;;;;;39.50;21.90;;;0.60;99.90;;;;;;10422045;28;20096;-84
2022/04/02 13:55:33;;;;;;;40.53;21.10;;;0.70;99.90;;;;;;10432822;28;20049;-83
2022/04/02 14:00:38;;;;;;;42.87;22.83;;;0.60;99.90;;;;;;10446543;28;20477;-84
2022/04/02 14:06:15;;;;;;;43.33;23.50;;;0.70;99.90;;;;;;10426436;28;20022;-85
2022/04/02 14:11:21;;;;;;;41.30;22.17;;;0.70;99.90;;;;;;10408417;28;20039;-85
2022/04/02 14:16:28;;;;;;;38.10;21.00;;;0.70;99.90;;;;;;10422559;28;20049;-85
2022/04/02 14:21:31;;;;;;;46.43;23.73;;;0.70;99.90;;;;;;10440648;28;20021;-86
2022/04/02 14:26:51;;;;;;;43.70;23.77;;;0.70;99.90;;;;;;10452905;28;20036;-85
2022/04/02 14:32:25;;;;;;;50.80;25.83;;;0.70;99.90;;;;;;10449234;28;20021;-85
2022/04/02 14:38:04;;;;;;;50.30;24.80;;;0.70;99.90;;;;;;10411470;28;20061;-85
2022/04/02 14:43:27;;;;;;;47.47;24.90;;;0.80;99.90;;;;;;10410950;28;20389;-85
2022/04/02 14:49:06;;;;;;;46.97;24.23;;;0.80;99.90;;;;;;10401239;28;20140;-85
2022/04/02 14:54:34;;;;;;;41.93;23.37;;;0.80;99.90;;;;;;10411185;28;20052;-85
2022/04/02 14:59:55;;;;;;;48.13;25.27;;;0.80;99.90;;;;;;10410373;28;20420;-85
2022/04/02 15:05:04;;;;;;;52.67;26.47;;;0.80;99.90;;;;;;10411169;28;20032;-86
2022/04/02 15:10:34;;;;;;;53.93;26.53;;;0.80;99.90;;;;;;10409966;28;20036;-84
2022/04/02 15:15:45;;;;;;;48.90;24.93;;;0.80;99.90;;;;;;10434197;28;20037;-84
2022/04/02 15:21:15;;;;;;;55.00;27.07;;;0.80;99.90;;;;;;10417681;28;20128;-85
2022/04/02 15:26:22;;;;;;;52.13;26.07;;;0.80;99.90;;;;;;10409214;28;20029;-85
2022/04/02 15:32:00;;;;;;;56.87;28.03;;;0.80;99.90;;;;;;10392009;28;20028;-86
2022/04/02 15:37:08;;;;;;;55.03;27.83;;;0.80;99.90;;;;;;10409411;28;20047;-85
2022/04/02 15:42:25;;;;;;;54.47;27.10;;;0.80;99.90;;;;;;10435037;28;20528;-84
2022/04/02 15:47:45;;;;;;;57.50;26.50;;;0.80;99.90;;;;;;10408696;28;20029;-84
2022/04/02 15:53:08;;;;;;;61.90;29.97;;;0.80;99.90;;;;;;10391024;28;20085;-86
2022/04/02 15:58:09;;;;;;;57.27;28.57;;;0.80;99.90;;;;;;10447562;28;20241;-85
2022/04/02 16:03:32;;;;;;;60.40;29.87;;;0.80;99.90;;;;;;10432333;28;20029;-85
2022/04/02 16:08:33;;;;;;;59.97;30.20;;;0.80;99.90;;;;;;10449150;28;20601;-85
2022/04/02 16:13:37;;;;;;;69.17;30.27;;;0.80;99.90;;;;;;10434150;28;20053;-85
2022/04/02 16:18:39;;;;;;;69.37;32.80;;;0.80;99.90;;;;;;10411177;28;20102;-85
2022/04/02 16:23:40;;;;;;;63.60;29.90;;;0.90;99.90;;;;;;10432817;28;20025;-84
2022/04/02 16:28:44;;;;;;;61.27;30.13;;;0.80;99.90;;;;;;10412587;28;20036;-86
2022/04/02 16:33:47;;;;;;;67.03;31.40;;;0.80;99.90;;;;;;10446525;28;20372;-86
2022/04/02 16:38:59;;;;;;;63.93;31.07;;;0.80;99.90;;;;;;10433133;28;20070;-86
2022/04/02 16:44:20;;;;;;;67.50;33.17;;;0.80;99.90;;;;;;10415305;28;20076;-84
2022/04/02 16:49:22;;;;;;;71.10;32.20;;;0.80;99.90;;;;;;10415425;28;20050;-87
2022/04/02 16:54:22;;;;;;;62.70;30.37;;;0.80;99.90;;;;;;10425215;28;20044;-86
2022/04/02 16:59:23;;;;;;;73.47;34.70;;;0.80;99.90;;;;;;10442299;28;20018;-85
2022/04/02 17:04:24;;;;;;;184.00;73.40;;;0.80;99.90;;;;;;10422193;28;20029;-84
2022/04/02 17:09:27;;;;;;;94.57;40.37;;;0.90;99.90;;;;;;10456662;28;20074;-84
2022/04/02 17:14:33;;;;;;;82.70;37.27;;;0.80;99.90;;;;;;10438072;28;20025;-86
2022/04/02 17:19:36;;;;;;;138.27;62.57;;;0.90;99.90;;;;;;10425331;28;20068;-85
2022/04/02 17:24:40;;;;;;;96.47;47.10;;;0.90;99.90;;;;;;10428796;28;20033;-86
2022/04/02 17:29:41;;;;;;;86.07;42.10;;;0.90;99.90;;;;;;10415090;28;20035;-85
2022/04/02 17:34:54;;;;;;;92.13;40.83;;;0.90;99.90;;;;;;10426817;28;20036;-86
2022/04/02 17:39:59;;;;;;;87.77;40.90;;;0.90;99.90;;;;;;10414000;28;20385;-85
2022/04/02 17:45:13;;;;;;;85.30;40.67;;;0.90;99.90;;;;;;10413670;28;20029;-86
2022/04/02 17:50:46;;;;;;;94.30;40.47;;;0.90;99.90;;;;;;10413146;28;20053;-86
2022/04/02 17:55:48;;;;;;;85.73;38.27;;;0.90;99.90;;;;;;10386004;28;20452;-85
2022/04/02 18:00:55;;;;;;;89.03;40.30;;;0.90;99.90;;;;;;10395086;28;20025;-86
2022/04/02 18:05:59;;;;;;;91.90;41.13;;;0.80;99.90;;;;;;10413275;28;20033;-85
2022/04/02 18:11:00;;;;;;;93.00;43.27;;;0.90;99.90;;;;;;10394538;28;20033;-85
2022/04/02 18:16:01;;;;;;;98.50;41.27;;;0.80;99.90;;;;;;10394825;28;20393;-85
2022/04/02 18:21:03;;;;;;;109.03;46.30;;;0.80;99.90;;;;;;10412745;28;20557;-85
2022/04/02 18:26:05;;;;;;;103.00;46.93;;;0.80;99.90;;;;;;10412402;28;20120;-84
2022/04/02 18:31:06;;;;;;;102.60;46.10;;;0.80;99.90;;;;;;10411906;28;20366;-85
2022/04/02 18:36:07;;;;;;;98.23;40.83;;;0.80;99.90;;;;;;10411280;28;20029;-85
2022/04/02 18:41:08;;;;;;;100.50;44.70;;;0.80;99.90;;;;;;10412044;28;20021;-85
2022/04/02 18:46:09;;;;;;;111.40;47.50;;;0.70;99.90;;;;;;10411493;28;20556;-85
2022/04/02 18:51:09;;;;;;;217.50;91.47;;;0.70;99.90;;;;;;10411230;28;20065;-85
2022/04/02 18:56:10;;;;;;;151.40;66.87;;;0.70;99.90;;;;;;10428479;28;20033;-87
2022/04/02 19:01:11;;;;;;;138.77;61.13;;;0.70;99.90;;;;;;10424852;28;20036;-86
2022/04/02 19:06:12;;;;;;;118.63;53.03;;;0.70;99.90;;;;;;10408209;28;20025;-86
2022/04/02 19:11:12;;;;;;;123.10;54.53;;;0.70;99.90;;;;;;10406115;28;20030;-85
2022/04/02 19:16:13;;;;;;;248.27;108.63;;;0.70;99.90;;;;;;10407123;28;20452;-84
2022/04/02 19:21:14;;;;;;;270.67;116.17;;;0.70;99.90;;;;;;10408971;28;20373;-87
2022/04/02 19:26:14;;;;;;;239.83;103.83;;;0.70;99.90;;;;;;10408794;28;20025;-85
2022/04/02 19:31:15;;;;;;;250.10;113.97;;;0.60;99.90;;;;;;10404572;28;20052;-87
2022/04/02 19:36:16;;;;;;;237.70;105.53;;;0.70;99.90;;;;;;10406337;28;20087;-88
2022/04/02 19:41:17;;;;;;;193.97;86.10;;;0.60;99.90;;;;;;10407876;28;20013;-87
2022/04/02 19:46:17;;;;;;;182.47;74.10;;;0.60;99.90;;;;;;10418932;28;20413;-86
2022/04/02 19:51:19;;;;;;;138.07;60.23;;;0.60;99.90;;;;;;10437713;28;20045;-86
2022/04/02 19:56:20;;;;;;;117.67;52.73;;;0.60;99.90;;;;;;10414561;28;20045;-89
2022/04/02 20:01:21;;;;;;;110.67;47.13;;;0.50;99.90;;;;;;10414370;28;20033;-85
2022/04/02 20:06:21;;;;;;;102.40;46.97;;;0.60;99.90;;;;;;10396159;28;20037;-88
2022/04/02 20:11:22;;;;;;;101.83;45.33;;;0.60;99.90;;;;;;10427909;28;20724;-87
2022/04/02 20:16:23;;;;;;;99.00;45.03;;;0.60;99.90;;;;;;10420691;28;20044;-86
2022/04/02 20:21:23;;;;;;;112.03;47.70;;;0.50;99.90;;;;;;10416412;28;20033;-85
2022/04/02 20:26:24;;;;;;;114.90;50.53;;;0.50;99.90;;;;;;10437518;28;20111;-85
2022/04/02 20:31:24;;;;;;;115.63;54.30;;;0.60;99.90;;;;;;10443555;28;20025;-85
2022/04/02 20:36:25;;;;;;;115.30;50.30;;;0.50;99.90;;;;;;10447209;28;20037;-85
2022/04/02 20:41:26;;;;;;;117.03;53.73;;;0.50;99.90;;;;;;10427568;28;20443;-86
2022/04/02 20:46:26;;;;;;;115.07;53.33;;;0.60;99.90;;;;;;10424173;28;20033;-85
2022/04/02 20:51:32;;;;;;;115.63;49.57;;;0.60;99.90;;;;;;10431449;28;20053;-86
2022/04/02 20:56:32;;;;;;;111.18;49.03;;;0.60;99.90;;;;;;10407991;28;20045;-87
2022/04/02 21:01:33;;;;;;;102.27;47.57;;;0.50;99.90;;;;;;10400269;28;20813;-87
2022/04/02 21:06:34;;;;;;;92.77;47.40;;;0.50;99.90;;;;;;10407659;28;20021;-86
2022/04/02 21:11:35;;;;;;;104.77;49.47;;;0.50;99.90;;;;;;10400367;28;20037;-86
2022/04/02 21:16:35;;;;;;;99.57;46.07;;;0.50;99.90;;;;;;10417273;28;20045;-86
2022/04/02 21:21:42;;;;;;;98.23;44.13;;;0.50;99.90;;;;;;10406364;28;20060;-86
2022/04/02 21:26:43;;;;;;;247.77;100.33;;;0.50;99.90;;;;;;10430046;28;20029;-86
2022/04/02 21:31:45;;;;;;;243.27;102.83;;;0.50;99.90;;;;;;10442348;28;20040;-86
2022/04/02 21:36:46;;;;;;;178.67;80.07;;;0.50;99.90;;;;;;10414007;28;20060;-87
2022/04/02 21:41:46;;;;;;;122.07;52.77;;;0.50;99.90;;;;;;10440845;28;20486;-86
2022/04/02 21:46:47;;;;;;;94.63;43.53;;;0.50;99.90;;;;;;10450921;28;20179;-85
2022/04/02 21:51:48;;;;;;;82.83;36.40;;;0.40;99.90;;;;;;10428528;28;20040;-85
2022/04/02 21:56:48;;;;;;;58.00;27.27;;;0.50;99.90;;;;;;10450020;28;20116;-85
2022/04/02 22:01:55;;;;;;;53.60;24.57;;;0.50;99.90;;;;;;10422236;28;20029;-85
2022/04/02 22:06:56;;;;;;;52.40;21.60;;;0.50;99.90;;;;;;10448499;28;20100;-85
2022/04/02 22:11:56;;;;;;;45.93;18.87;;;0.40;99.90;;;;;;10450137;28;20032;-85
2022/04/02 22:16:58;;;;;;;40.47;18.10;;;0.40;99.90;;;;;;10449689;28;20210;-86
2022/04/02 22:21:58;;;;;;;40.97;15.33;;;0.40;99.90;;;;;;10432749;28;20037;-87
2022/04/02 22:27:00;;;;;;;38.87;16.47;;;0.40;99.90;;;;;;10416571;28;20021;-84
2022/04/02 22:32:01;;;;;;;33.60;14.57;;;0.30;99.90;;;;;;10447893;28;20498;-84
2022/04/02 22:37:01;;;;;;;31.90;13.37;;;0.30;99.90;;;;;;10392497;28;20045;-83
2022/04/02 22:42:02;;;;;;;32.67;14.90;;;0.20;99.90;;;;;;10426857;28;20040;-84
2022/04/02 22:47:03;;;;;;;27.60;12.13;;;0.10;99.90;;;;;;10433145;28;20114;-85
2022/04/02 22:52:04;;;;;;;28.53;11.43;;;0.00;99.90;;;;;;10408661;28;20076;-84
2022/04/02 22:57:06;;;;;;;30.97;11.37;;;-0.10;99.90;;;;;;10434316;28;20049;-85
2022/04/02 23:02:07;;;;;;;24.83;10.00;;;-0.20;99.90;;;;;;10432342;28;20397;-84
2022/04/02 23:07:07;;;;;;;22.77;8.57;;;-0.30;99.90;;;;;;10451592;28;20025;-84
2022/04/02 23:12:09;;;;;;;25.67;10.00;;;-0.40;99.90;;;;;;10450608;28;20033;-84
2022/04/02 23:17:09;;;;;;;23.67;8.50;;;-0.50;99.90;;;;;;10419942;28;20524;-85
2022/04/02 23:22:10;;;;;;;26.33;8.73;;;-0.60;99.90;;;;;;10426157;28;20037;-84
2022/04/02 23:27:11;;;;;;;19.30;8.73;;;-0.60;99.90;;;;;;10432969;28;20071;-84
2022/04/02 23:32:11;;;;;;;23.33;8.97;;;-0.60;99.90;;;;;;10430048;28;20029;-84
2022/04/02 23:37:12;;;;;;;21.67;9.43;;;-0.60;99.90;;;;;;10432429;28;20036;-84
2022/04/02 23:42:13;;;;;;;23.07;8.73;;;-0.60;99.90;;;;;;10415042;28;20444;-83
2022/04/02 23:47:13;;;;;;;18.07;8.13;;;-0.60;99.90;;;;;;10442157;28;20032;-84
2022/04/02 23:52:14;;;;;;;22.83;8.53;;;-0.70;99.90;;;;;;10415252;28;20046;-84
2022/04/02 23:57:14;;;;;;;20.17;8.03;;;-0.70;99.90;;;;;;10390715;28;20041;-84
